sensor_id;sensor_type;location;lat;lon;timestamp;P1;durP1;ratioP1;P2;durP2;ratioP2
75358;SDS011;64046;51.978;5.934;2023-05-10T00:02:22;16.75;;;11.60;;
75358;SDS011;64046;51.978;5.934;2023-05-10T00:08:18;20.15;;;12.90;;
75358;SDS011;64046;51.978;5.934;2023-05-10T00:16:57;20.88;;;13.68;;
75358;SDS011;64046;51.978;5.934;2023-05-10T00:19:37;21.77;;;14.50;;
75358;SDS011;64046;51.978;5.934;2023-05-10T00:22:17;21.13;;;13.93;;
75358;SDS011;64046;51.978;5.934;2023-05-10T00:24:50;23.40;;;14.90;;
75358;SDS011;64046;51.978;5.934;2023-05-10T00:27:25;27.65;;;15.45;;
75358;SDS011;64046;51.978;5.934;2023-05-10T00:33:11;27.13;;;14.90;;
75358;SDS011;64046;51.978;5.934;2023-05-10T00:35:57;27.13;;;16.23;;
75358;SDS011;64046;51.978;5.934;2023-05-10T00:38:28;27.35;;;17.15;;
75358;SDS011;64046;51.978;5.934;2023-05-10T00:41:01;30.27;;;18.80;;
75358;SDS011;64046;51.978;5.934;2023-05-10T00:43:33;28.45;;;18.05;;
75358;SDS011;64046;51.978;5.934;2023-05-10T00:49:41;31.05;;;18.35;;
75358;SDS011;64046;51.978;5.934;2023-05-10T00:52:22;31.08;;;19.27;;
75358;SDS011;64046;51.978;5.934;2023-05-10T00:57:33;31.00;;;19.45;;
75358;SDS011;64046;51.978;5.934;2023-05-10T01:00:03;36.58;;;22.88;;
75358;SDS011;64046;51.978;5.934;2023-05-10T01:02:38;37.38;;;21.73;;
75358;SDS011;64046;51.978;5.934;2023-05-10T01:05:11;36.03;;;21.00;;
75358;SDS011;64046;51.978;5.934;2023-05-10T01:07:47;35.10;;;21.90;;
75358;SDS011;64046;51.978;5.934;2023-05-10T01:10:22;35.72;;;21.38;;
75358;SDS011;64046;51.978;5.934;2023-05-10T01:15:44;45.30;;;25.50;;
75358;SDS011;64046;51.978;5.934;2023-05-10T01:18:21;36.03;;;22.17;;
75358;SDS011;64046;51.978;5.934;2023-05-10T01:21:03;38.70;;;23.13;;
75358;SDS011;64046;51.978;5.934;2023-05-10T01:24:09;38.85;;;22.23;;
75358;SDS011;64046;51.978;5.934;2023-05-10T01:30:07;47.17;;;26.38;;
75358;SDS011;64046;51.978;5.934;2023-05-10T01:32:57;42.85;;;25.10;;
75358;SDS011;64046;51.978;5.934;2023-05-10T01:35:32;36.10;;;21.85;;
75358;SDS011;64046;51.978;5.934;2023-05-10T01:38:18;45.40;;;24.63;;
75358;SDS011;64046;51.978;5.934;2023-05-10T01:41:09;45.88;;;25.98;;
75358;SDS011;64046;51.978;5.934;2023-05-10T01:43:55;40.60;;;22.23;;
75358;SDS011;64046;51.978;5.934;2023-05-10T01:46:37;46.47;;;24.98;;
75358;SDS011;64046;51.978;5.934;2023-05-10T01:49:19;36.58;;;22.00;;
75358;SDS011;64046;51.978;5.934;2023-05-10T01:52:09;37.28;;;22.45;;
75358;SDS011;64046;51.978;5.934;2023-05-10T01:54:49;32.90;;;20.63;;
75358;SDS011;64046;51.978;5.934;2023-05-10T01:57:28;37.53;;;22.23;;
75358;SDS011;64046;51.978;5.934;2023-05-10T02:00:08;42.47;;;23.65;;
75358;SDS011;64046;51.978;5.934;2023-05-10T02:02:47;34.65;;;20.63;;
75358;SDS011;64046;51.978;5.934;2023-05-10T02:05:32;40.67;;;22.15;;
75358;SDS011;64046;51.978;5.934;2023-05-10T02:08:05;41.30;;;23.58;;
75358;SDS011;64046;51.978;5.934;2023-05-10T02:13:45;32.08;;;20.77;;
75358;SDS011;64046;51.978;5.934;2023-05-10T02:16:38;35.95;;;21.23;;
75358;SDS011;64046;51.978;5.934;2023-05-10T02:19:25;34.83;;;20.42;;
75358;SDS011;64046;51.978;5.934;2023-05-10T02:22:08;32.67;;;19.15;;
75358;SDS011;64046;51.978;5.934;2023-05-10T02:24:42;37.30;;;20.25;;
75358;SDS011;64046;51.978;5.934;2023-05-10T02:27:16;37.20;;;20.55;;
75358;SDS011;64046;51.978;5.934;2023-05-10T02:29:49;33.15;;;18.92;;
75358;SDS011;64046;51.978;5.934;2023-05-10T02:32:24;42.38;;;23.13;;
75358;SDS011;64046;51.978;5.934;2023-05-10T02:34:59;40.15;;;21.50;;
75358;SDS011;64046;51.978;5.934;2023-05-10T02:37:37;39.65;;;19.25;;
75358;SDS011;64046;51.978;5.934;2023-05-10T02:40:11;46.90;;;23.20;;
75358;SDS011;64046;51.978;5.934;2023-05-10T02:42:48;39.13;;;22.10;;
75358;SDS011;64046;51.978;5.934;2023-05-10T02:45:21;48.33;;;24.67;;
75358;SDS011;64046;51.978;5.934;2023-05-10T02:47:57;38.45;;;20.85;;
75358;SDS011;64046;51.978;5.934;2023-05-10T02:50:30;41.63;;;22.92;;
75358;SDS011;64046;51.978;5.934;2023-05-10T02:53:15;50.63;;;25.55;;
75358;SDS011;64046;51.978;5.934;2023-05-10T02:56:00;37.63;;;22.27;;
75358;SDS011;64046;51.978;5.934;2023-05-10T02:58:43;37.35;;;21.63;;
75358;SDS011;64046;51.978;5.934;2023-05-10T03:01:22;53.38;;;26.98;;
75358;SDS011;64046;51.978;5.934;2023-05-10T03:03:56;45.72;;;24.48;;
75358;SDS011;64046;51.978;5.934;2023-05-10T03:06:28;43.33;;;23.05;;
75358;SDS011;64046;51.978;5.934;2023-05-10T03:09:03;50.85;;;25.95;;
75358;SDS011;64046;51.978;5.934;2023-05-10T03:11:43;55.50;;;28.55;;
75358;SDS011;64046;51.978;5.934;2023-05-10T03:14:30;56.67;;;26.77;;
75358;SDS011;64046;51.978;5.934;2023-05-10T03:17:17;51.83;;;27.88;;
75358;SDS011;64046;51.978;5.934;2023-05-10T03:20:11;47.47;;;26.33;;
75358;SDS011;64046;51.978;5.934;2023-05-10T03:22:55;46.95;;;25.48;;
75358;SDS011;64046;51.978;5.934;2023-05-10T03:25:38;42.40;;;24.02;;
75358;SDS011;64046;51.978;5.934;2023-05-10T03:28:21;43.92;;;24.30;;
75358;SDS011;64046;51.978;5.934;2023-05-10T03:31:00;46.35;;;26.08;;
75358;SDS011;64046;51.978;5.934;2023-05-10T03:33:41;58.75;;;29.55;;
75358;SDS011;64046;51.978;5.934;2023-05-10T03:36:27;49.45;;;26.08;;
75358;SDS011;64046;51.978;5.934;2023-05-10T03:39:01;50.10;;;27.30;;
75358;SDS011;64046;51.978;5.934;2023-05-10T03:41:36;43.55;;;24.77;;
75358;SDS011;64046;51.978;5.934;2023-05-10T03:44:12;43.40;;;24.75;;
75358;SDS011;64046;51.978;5.934;2023-05-10T03:46:51;42.90;;;24.15;;
75358;SDS011;64046;51.978;5.934;2023-05-10T03:52:18;42.38;;;23.05;;
75358;SDS011;64046;51.978;5.934;2023-05-10T03:54:53;42.20;;;22.98;;
75358;SDS011;64046;51.978;5.934;2023-05-10T03:57:55;45.67;;;24.92;;
75358;SDS011;64046;51.978;5.934;2023-05-10T04:00:28;43.13;;;24.90;;
75358;SDS011;64046;51.978;5.934;2023-05-10T04:05:58;42.65;;;25.00;;
75358;SDS011;64046;51.978;5.934;2023-05-10T04:08:36;47.55;;;25.23;;
75358;SDS011;64046;51.978;5.934;2023-05-10T04:11:11;39.97;;;24.02;;
75358;SDS011;64046;51.978;5.934;2023-05-10T04:13:45;45.05;;;25.02;;
75358;SDS011;64046;51.978;5.934;2023-05-10T04:19:28;45.80;;;24.27;;
75358;SDS011;64046;51.978;5.934;2023-05-10T04:24:46;42.85;;;22.70;;
75358;SDS011;64046;51.978;5.934;2023-05-10T04:29:55;40.05;;;22.75;;
75358;SDS011;64046;51.978;5.934;2023-05-10T04:32:25;50.22;;;27.35;;
75358;SDS011;64046;51.978;5.934;2023-05-10T04:35:00;41.33;;;24.02;;
75358;SDS011;64046;51.978;5.934;2023-05-10T04:37:32;43.65;;;23.35;;
75358;SDS011;64046;51.978;5.934;2023-05-10T04:40:03;42.63;;;22.45;;
75358;SDS011;64046;51.978;5.934;2023-05-10T04:42:41;36.40;;;20.80;;
75358;SDS011;64046;51.978;5.934;2023-05-10T04:45:25;47.80;;;22.13;;
75358;SDS011;64046;51.978;5.934;2023-05-10T04:47:58;39.35;;;20.95;;
75358;SDS011;64046;51.978;5.934;2023-05-10T04:50:42;46.75;;;23.40;;
75358;SDS011;64046;51.978;5.934;2023-05-10T04:53:13;40.78;;;21.20;;
75358;SDS011;64046;51.978;5.934;2023-05-10T04:55:44;41.67;;;21.85;;
75358;SDS011;64046;51.978;5.934;2023-05-10T04:58:16;49.17;;;23.15;;
75358;SDS011;64046;51.978;5.934;2023-05-10T05:03:38;37.33;;;19.23;;
75358;SDS011;64046;51.978;5.934;2023-05-10T05:06:18;52.22;;;24.50;;
75358;SDS011;64046;51.978;5.934;2023-05-10T05:08:54;44.38;;;23.63;;
75358;SDS011;64046;51.978;5.934;2023-05-10T05:11:26;46.38;;;22.17;;
75358;SDS011;64046;51.978;5.934;2023-05-10T05:13:58;34.42;;;20.17;;
75358;SDS011;64046;51.978;5.934;2023-05-10T05:16:32;40.55;;;21.23;;
75358;SDS011;64046;51.978;5.934;2023-05-10T05:19:02;45.35;;;23.15;;
75358;SDS011;64046;51.978;5.934;2023-05-10T05:21:44;41.28;;;21.30;;
75358;SDS011;64046;51.978;5.934;2023-05-10T05:24:13;44.45;;;21.33;;
75358;SDS011;64046;51.978;5.934;2023-05-10T05:26:44;39.22;;;21.35;;
75358;SDS011;64046;51.978;5.934;2023-05-10T05:29:27;37.67;;;21.08;;
75358;SDS011;64046;51.978;5.934;2023-05-10T05:32:07;38.38;;;20.13;;
75358;SDS011;64046;51.978;5.934;2023-05-10T05:34:38;38.72;;;20.30;;
75358;SDS011;64046;51.978;5.934;2023-05-10T05:37:12;33.65;;;19.67;;
75358;SDS011;64046;51.978;5.934;2023-05-10T05:39:51;42.83;;;21.45;;
75358;SDS011;64046;51.978;5.934;2023-05-10T05:42:25;41.33;;;20.10;;
75358;SDS011;64046;51.978;5.934;2023-05-10T05:44:54;36.88;;;21.38;;
75358;SDS011;64046;51.978;5.934;2023-05-10T05:47:28;37.67;;;19.40;;
75358;SDS011;64046;51.978;5.934;2023-05-10T05:50:02;39.58;;;20.23;;
75358;SDS011;64046;51.978;5.934;2023-05-10T05:52:39;44.85;;;20.23;;
75358;SDS011;64046;51.978;5.934;2023-05-10T05:55:28;30.48;;;18.83;;
75358;SDS011;64046;51.978;5.934;2023-05-10T05:58:02;41.50;;;22.52;;
75358;SDS011;64046;51.978;5.934;2023-05-10T06:00:37;38.78;;;21.73;;
75358;SDS011;64046;51.978;5.934;2023-05-10T06:03:22;46.58;;;23.63;;
75358;SDS011;64046;51.978;5.934;2023-05-10T06:05:52;48.10;;;22.20;;
75358;SDS011;64046;51.978;5.934;2023-05-10T06:08:23;42.75;;;21.05;;
75358;SDS011;64046;51.978;5.934;2023-05-10T06:16:51;42.30;;;21.05;;
75358;SDS011;64046;51.978;5.934;2023-05-10T06:19:24;39.72;;;21.65;;
75358;SDS011;64046;51.978;5.934;2023-05-10T06:21:59;55.35;;;24.60;;
75358;SDS011;64046;51.978;5.934;2023-05-10T06:27:14;57.47;;;25.95;;
75358;SDS011;64046;51.978;5.934;2023-05-10T06:29:45;39.42;;;20.40;;
75358;SDS011;64046;51.978;5.934;2023-05-10T06:32:16;53.20;;;24.95;;
75358;SDS011;64046;51.978;5.934;2023-05-10T06:34:50;41.05;;;20.88;;
75358;SDS011;64046;51.978;5.934;2023-05-10T06:37:24;59.70;;;26.52;;
75358;SDS011;64046;51.978;5.934;2023-05-10T06:40:09;55.42;;;26.05;;
75358;SDS011;64046;51.978;5.934;2023-05-10T06:45:18;54.45;;;23.85;;
75358;SDS011;64046;51.978;5.934;2023-05-10T06:48:08;48.00;;;23.25;;
75358;SDS011;64046;51.978;5.934;2023-05-10T06:51:13;43.03;;;21.15;;
75358;SDS011;64046;51.978;5.934;2023-05-10T06:53:52;48.65;;;23.95;;
75358;SDS011;64046;51.978;5.934;2023-05-10T06:56:22;54.38;;;24.10;;
75358;SDS011;64046;51.978;5.934;2023-05-10T06:58:59;41.22;;;21.98;;
75358;SDS011;64046;51.978;5.934;2023-05-10T07:01:31;42.30;;;22.55;;
75358;SDS011;64046;51.978;5.934;2023-05-10T07:04:08;44.90;;;22.23;;
75358;SDS011;64046;51.978;5.934;2023-05-10T07:06:42;40.63;;;20.88;;
75358;SDS011;64046;51.978;5.934;2023-05-10T07:09:30;49.33;;;23.95;;
75358;SDS011;64046;51.978;5.934;2023-05-10T07:12:06;39.70;;;20.65;;
75358;SDS011;64046;51.978;5.934;2023-05-10T07:14:36;38.88;;;19.98;;
75358;SDS011;64046;51.978;5.934;2023-05-10T07:19:47;49.60;;;23.70;;
75358;SDS011;64046;51.978;5.934;2023-05-10T07:22:28;34.90;;;20.08;;
75358;SDS011;64046;51.978;5.934;2023-05-10T07:24:59;38.40;;;19.67;;
75358;SDS011;64046;51.978;5.934;2023-05-10T07:27:36;42.28;;;22.27;;
75358;SDS011;64046;51.978;5.934;2023-05-10T07:30:06;47.40;;;23.17;;
75358;SDS011;64046;51.978;5.934;2023-05-10T07:32:42;42.75;;;21.25;;
75358;SDS011;64046;51.978;5.934;2023-05-10T07:35:15;45.63;;;23.27;;
75358;SDS011;64046;51.978;5.934;2023-05-10T07:37:47;59.83;;;29.77;;
75358;SDS011;64046;51.978;5.934;2023-05-10T07:40:18;46.78;;;23.55;;
75358;SDS011;64046;51.978;5.934;2023-05-10T07:42:48;50.33;;;25.42;;
75358;SDS011;64046;51.978;5.934;2023-05-10T07:45:20;45.00;;;23.08;;
75358;SDS011;64046;51.978;5.934;2023-05-10T07:47:52;43.35;;;21.48;;
75358;SDS011;64046;51.978;5.934;2023-05-10T07:50:25;45.10;;;23.50;;
75358;SDS011;64046;51.978;5.934;2023-05-10T07:53:00;45.67;;;22.33;;
75358;SDS011;64046;51.978;5.934;2023-05-10T07:55:29;53.90;;;27.15;;
75358;SDS011;64046;51.978;5.934;2023-05-10T07:57:59;48.20;;;22.92;;
75358;SDS011;64046;51.978;5.934;2023-05-10T08:00:39;46.80;;;24.00;;
75358;SDS011;64046;51.978;5.934;2023-05-10T08:03:08;44.97;;;23.25;;
75358;SDS011;64046;51.978;5.934;2023-05-10T08:05:44;40.42;;;20.85;;
75358;SDS011;64046;51.978;5.934;2023-05-10T08:08:18;36.22;;;19.45;;
75358;SDS011;64046;51.978;5.934;2023-05-10T08:10:50;43.70;;;21.25;;
75358;SDS011;64046;51.978;5.934;2023-05-10T08:13:21;44.22;;;21.83;;
75358;SDS011;64046;51.978;5.934;2023-05-10T08:15:53;44.80;;;22.05;;
75358;SDS011;64046;51.978;5.934;2023-05-10T08:18:24;48.72;;;22.30;;
75358;SDS011;64046;51.978;5.934;2023-05-10T08:21:04;39.75;;;20.55;;
75358;SDS011;64046;51.978;5.934;2023-05-10T08:23:39;40.05;;;19.48;;
75358;SDS011;64046;51.978;5.934;2023-05-10T08:26:09;40.55;;;21.38;;
75358;SDS011;64046;51.978;5.934;2023-05-10T08:28:39;45.53;;;21.95;;
75358;SDS011;64046;51.978;5.934;2023-05-10T08:31:11;39.67;;;19.92;;
75358;SDS011;64046;51.978;5.934;2023-05-10T08:33:42;35.20;;;18.60;;
75358;SDS011;64046;51.978;5.934;2023-05-10T08:36:14;29.13;;;16.33;;
75358;SDS011;64046;51.978;5.934;2023-05-10T08:38:50;32.67;;;18.77;;
75358;SDS011;64046;51.978;5.934;2023-05-10T08:41:31;35.60;;;20.33;;
75358;SDS011;64046;51.978;5.934;2023-05-10T08:44:11;34.22;;;17.67;;
75358;SDS011;64046;51.978;5.934;2023-05-10T08:46:44;35.25;;;18.98;;
75358;SDS011;64046;51.978;5.934;2023-05-10T08:49:21;39.90;;;20.77;;
75358;SDS011;64046;51.978;5.934;2023-05-10T08:51:55;32.58;;;17.88;;
75358;SDS011;64046;51.978;5.934;2023-05-10T08:54:34;31.60;;;17.63;;
75358;SDS011;64046;51.978;5.934;2023-05-10T08:57:04;30.33;;;16.55;;
75358;SDS011;64046;51.978;5.934;2023-05-10T08:59:37;30.48;;;16.17;;
75358;SDS011;64046;51.978;5.934;2023-05-10T09:02:11;26.25;;;14.75;;
75358;SDS011;64046;51.978;5.934;2023-05-10T09:05:18;24.98;;;14.35;;
75358;SDS011;64046;51.978;5.934;2023-05-10T09:07:52;27.60;;;13.68;;
75358;SDS011;64046;51.978;5.934;2023-05-10T09:10:31;23.40;;;12.60;;
75358;SDS011;64046;51.978;5.934;2023-05-10T09:13:03;24.80;;;12.40;;
75358;SDS011;64046;51.978;5.934;2023-05-10T09:15:35;24.30;;;12.30;;
75358;SDS011;64046;51.978;5.934;2023-05-10T09:18:05;25.08;;;11.48;;
75358;SDS011;64046;51.978;5.934;2023-05-10T09:20:37;19.50;;;10.95;;
75358;SDS011;64046;51.978;5.934;2023-05-10T09:23:09;17.23;;;11.25;;
75358;SDS011;64046;51.978;5.934;2023-05-10T09:25:46;22.52;;;11.85;;
75358;SDS011;64046;51.978;5.934;2023-05-10T09:28:22;17.40;;;10.95;;
75358;SDS011;64046;51.978;5.934;2023-05-10T09:33:51;12.57;;;7.30;;
75358;SDS011;64046;51.978;5.934;2023-05-10T09:36:44;13.38;;;7.55;;
75358;SDS011;64046;51.978;5.934;2023-05-10T09:39:34;13.15;;;8.13;;
75358;SDS011;64046;51.978;5.934;2023-05-10T09:42:07;12.85;;;8.55;;
75358;SDS011;64046;51.978;5.934;2023-05-10T09:44:44;15.95;;;7.63;;
75358;SDS011;64046;51.978;5.934;2023-05-10T09:47:20;12.52;;;7.35;;
75358;SDS011;64046;51.978;5.934;2023-05-10T09:49:49;13.55;;;7.50;;
75358;SDS011;64046;51.978;5.934;2023-05-10T09:52:21;11.02;;;7.47;;
75358;SDS011;64046;51.978;5.934;2023-05-10T09:54:52;11.20;;;7.15;;
75358;SDS011;64046;51.978;5.934;2023-05-10T09:57:28;13.20;;;7.85;;
75358;SDS011;64046;51.978;5.934;2023-05-10T10:00:06;12.55;;;7.32;;
75358;SDS011;64046;51.978;5.934;2023-05-10T10:02:41;13.02;;;7.28;;
75358;SDS011;64046;51.978;5.934;2023-05-10T10:05:21;11.88;;;8.35;;
75358;SDS011;64046;51.978;5.934;2023-05-10T10:08:02;11.90;;;7.78;;
75358;SDS011;64046;51.978;5.934;2023-05-10T10:10:36;18.00;;;8.00;;
75358;SDS011;64046;51.978;5.934;2023-05-10T10:13:13;10.32;;;6.50;;
75358;SDS011;64046;51.978;5.934;2023-05-10T10:15:55;13.43;;;7.25;;
75358;SDS011;64046;51.978;5.934;2023-05-10T10:18:26;11.48;;;7.70;;
75358;SDS011;64046;51.978;5.934;2023-05-10T10:21:00;12.32;;;7.32;;
75358;SDS011;64046;51.978;5.934;2023-05-10T10:23:32;11.32;;;7.60;;
75358;SDS011;64046;51.978;5.934;2023-05-10T10:26:14;15.07;;;7.95;;
75358;SDS011;64046;51.978;5.934;2023-05-10T10:28:51;15.15;;;8.27;;
75358;SDS011;64046;51.978;5.934;2023-05-10T10:31:32;12.70;;;8.15;;
75358;SDS011;64046;51.978;5.934;2023-05-10T10:34:17;14.52;;;8.20;;
75358;SDS011;64046;51.978;5.934;2023-05-10T10:36:54;14.88;;;9.25;;
75358;SDS011;64046;51.978;5.934;2023-05-10T10:39:30;16.15;;;8.23;;
75358;SDS011;64046;51.978;5.934;2023-05-10T10:42:03;15.38;;;8.57;;
75358;SDS011;64046;51.978;5.934;2023-05-10T10:44:54;14.32;;;7.80;;
75358;SDS011;64046;51.978;5.934;2023-05-10T10:47:46;15.70;;;8.25;;
75358;SDS011;64046;51.978;5.934;2023-05-10T10:50:44;11.90;;;7.13;;
75358;SDS011;64046;51.978;5.934;2023-05-10T10:53:28;18.20;;;8.93;;
75358;SDS011;64046;51.978;5.934;2023-05-10T10:56:09;15.30;;;8.10;;
75358;SDS011;64046;51.978;5.934;2023-05-10T10:58:58;11.93;;;7.95;;
75358;SDS011;64046;51.978;5.934;2023-05-10T11:01:36;13.82;;;7.93;;
75358;SDS011;64046;51.978;5.934;2023-05-10T11:04:17;13.00;;;8.48;;
75358;SDS011;64046;51.978;5.934;2023-05-10T11:07:05;14.57;;;8.40;;
75358;SDS011;64046;51.978;5.934;2023-05-10T11:09:48;10.73;;;7.05;;
75358;SDS011;64046;51.978;5.934;2023-05-10T11:12:22;17.95;;;9.68;;
75358;SDS011;64046;51.978;5.934;2023-05-10T11:14:53;16.02;;;9.55;;
75358;SDS011;64046;51.978;5.934;2023-05-10T11:17:36;13.80;;;8.93;;
75358;SDS011;64046;51.978;5.934;2023-05-10T11:23:17;12.63;;;8.02;;
75358;SDS011;64046;51.978;5.934;2023-05-10T11:25:47;13.30;;;8.32;;
75358;SDS011;64046;51.978;5.934;2023-05-10T11:28:17;14.55;;;8.50;;
75358;SDS011;64046;51.978;5.934;2023-05-10T11:30:51;12.70;;;8.00;;
75358;SDS011;64046;51.978;5.934;2023-05-10T11:33:26;12.32;;;7.25;;
75358;SDS011;64046;51.978;5.934;2023-05-10T11:36:43;14.88;;;9.07;;
75358;SDS011;64046;51.978;5.934;2023-05-10T11:39:20;12.93;;;8.20;;
75358;SDS011;64046;51.978;5.934;2023-05-10T11:41:54;15.20;;;8.43;;
75358;SDS011;64046;51.978;5.934;2023-05-10T11:44:28;13.57;;;7.53;;
75358;SDS011;64046;51.978;5.934;2023-05-10T11:46:59;10.15;;;6.72;;
75358;SDS011;64046;51.978;5.934;2023-05-10T11:49:33;8.77;;;6.20;;
75358;SDS011;64046;51.978;5.934;2023-05-10T11:52:06;13.15;;;7.05;;
75358;SDS011;64046;51.978;5.934;2023-05-10T11:54:47;13.95;;;7.78;;
75358;SDS011;64046;51.978;5.934;2023-05-10T11:57:32;11.52;;;6.70;;
75358;SDS011;64046;51.978;5.934;2023-05-10T12:00:05;11.63;;;6.65;;
75358;SDS011;64046;51.978;5.934;2023-05-10T12:02:45;12.00;;;6.15;;
75358;SDS011;64046;51.978;5.934;2023-05-10T12:05:23;13.57;;;7.65;;
75358;SDS011;64046;51.978;5.934;2023-05-10T12:10:42;11.98;;;7.78;;
75358;SDS011;64046;51.978;5.934;2023-05-10T12:16:20;11.82;;;7.28;;
75358;SDS011;64046;51.978;5.934;2023-05-10T12:18:53;9.38;;;6.90;;
75358;SDS011;64046;51.978;5.934;2023-05-10T12:21:29;13.70;;;7.18;;
75358;SDS011;64046;51.978;5.934;2023-05-10T12:24:01;15.55;;;6.97;;
75358;SDS011;64046;51.978;5.934;2023-05-10T12:26:36;10.02;;;6.93;;
75358;SDS011;64046;51.978;5.934;2023-05-10T12:29:13;11.65;;;6.20;;
75358;SDS011;64046;51.978;5.934;2023-05-10T12:31:50;10.68;;;6.22;;
75358;SDS011;64046;51.978;5.934;2023-05-10T12:34:30;9.07;;;6.22;;
75358;SDS011;64046;51.978;5.934;2023-05-10T12:37:13;14.57;;;7.20;;
75358;SDS011;64046;51.978;5.934;2023-05-10T12:40:00;13.65;;;6.65;;
75358;SDS011;64046;51.978;5.934;2023-05-10T12:42:38;9.10;;;5.35;;
75358;SDS011;64046;51.978;5.934;2023-05-10T12:45:08;8.63;;;4.97;;
75358;SDS011;64046;51.978;5.934;2023-05-10T12:47:55;10.27;;;5.75;;
75358;SDS011;64046;51.978;5.934;2023-05-10T12:50:29;7.40;;;4.78;;
75358;SDS011;64046;51.978;5.934;2023-05-10T12:53:01;7.60;;;5.32;;
75358;SDS011;64046;51.978;5.934;2023-05-10T12:55:33;10.07;;;6.03;;
75358;SDS011;64046;51.978;5.934;2023-05-10T12:58:06;7.60;;;4.60;;
75358;SDS011;64046;51.978;5.934;2023-05-10T13:00:38;8.30;;;4.78;;
75358;SDS011;64046;51.978;5.934;2023-05-10T13:03:10;7.95;;;4.85;;
75358;SDS011;64046;51.978;5.934;2023-05-10T13:05:48;10.05;;;4.55;;
75358;SDS011;64046;51.978;5.934;2023-05-10T13:08:27;6.03;;;3.95;;
75358;SDS011;64046;51.978;5.934;2023-05-10T13:11:09;10.18;;;4.32;;
75358;SDS011;64046;51.978;5.934;2023-05-10T13:13:50;10.55;;;4.95;;
75358;SDS011;64046;51.978;5.934;2023-05-10T13:16:20;9.07;;;5.38;;
75358;SDS011;64046;51.978;5.934;2023-05-10T13:18:59;8.68;;;5.22;;
75358;SDS011;64046;51.978;5.934;2023-05-10T13:21:31;6.88;;;4.45;;
75358;SDS011;64046;51.978;5.934;2023-05-10T13:24:16;6.00;;;4.32;;
75358;SDS011;64046;51.978;5.934;2023-05-10T13:26:51;9.43;;;4.63;;
75358;SDS011;64046;51.978;5.934;2023-05-10T13:29:20;7.57;;;4.40;;
75358;SDS011;64046;51.978;5.934;2023-05-10T13:31:52;7.82;;;5.15;;
75358;SDS011;64046;51.978;5.934;2023-05-10T13:34:27;8.52;;;5.28;;
75358;SDS011;64046;51.978;5.934;2023-05-10T13:36:57;7.68;;;4.22;;
75358;SDS011;64046;51.978;5.934;2023-05-10T13:42:53;8.68;;;4.32;;
75358;SDS011;64046;51.978;5.934;2023-05-10T13:45:30;6.28;;;4.15;;
75358;SDS011;64046;51.978;5.934;2023-05-10T13:48:02;7.80;;;4.70;;
75358;SDS011;64046;51.978;5.934;2023-05-10T13:50:43;9.43;;;5.15;;
75358;SDS011;64046;51.978;5.934;2023-05-10T13:53:17;7.80;;;4.68;;
75358;SDS011;64046;51.978;5.934;2023-05-10T13:55:52;8.45;;;5.47;;
75358;SDS011;64046;51.978;5.934;2023-05-10T14:01:12;12.88;;;7.03;;
75358;SDS011;64046;51.978;5.934;2023-05-10T14:04:00;7.43;;;4.95;;
75358;SDS011;64046;51.978;5.934;2023-05-10T14:06:47;8.77;;;5.22;;
75358;SDS011;64046;51.978;5.934;2023-05-10T14:09:19;11.05;;;7.60;;
75358;SDS011;64046;51.978;5.934;2023-05-10T14:11:56;9.27;;;7.35;;
75358;SDS011;64046;51.978;5.934;2023-05-10T14:14:30;11.25;;;7.93;;
75358;SDS011;64046;51.978;5.934;2023-05-10T14:17:02;13.93;;;8.70;;
75358;SDS011;64046;51.978;5.934;2023-05-10T14:19:33;10.60;;;8.50;;
75358;SDS011;64046;51.978;5.934;2023-05-10T14:22:07;13.52;;;7.80;;
75358;SDS011;64046;51.978;5.934;2023-05-10T14:24:43;10.05;;;8.10;;
75358;SDS011;64046;51.978;5.934;2023-05-10T14:27:20;12.15;;;7.85;;
75358;SDS011;64046;51.978;5.934;2023-05-10T14:30:06;10.57;;;7.10;;
75358;SDS011;64046;51.978;5.934;2023-05-10T14:32:41;10.23;;;7.35;;
75358;SDS011;64046;51.978;5.934;2023-05-10T14:35:20;11.32;;;7.47;;
75358;SDS011;64046;51.978;5.934;2023-05-10T14:37:54;10.07;;;7.53;;
75358;SDS011;64046;51.978;5.934;2023-05-10T14:40:38;9.32;;;7.15;;
75358;SDS011;64046;51.978;5.934;2023-05-10T14:43:14;11.88;;;8.10;;
75358;SDS011;64046;51.978;5.934;2023-05-10T14:45:47;11.10;;;7.95;;
75358;SDS011;64046;51.978;5.934;2023-05-10T14:48:17;9.70;;;7.07;;
75358;SDS011;64046;51.978;5.934;2023-05-10T14:51:02;8.60;;;5.78;;
75358;SDS011;64046;51.978;5.934;2023-05-10T14:53:39;5.90;;;4.72;;
75358;SDS011;64046;51.978;5.934;2023-05-10T14:56:11;5.72;;;4.18;;
75358;SDS011;64046;51.978;5.934;2023-05-10T14:58:57;6.70;;;4.18;;
75358;SDS011;64046;51.978;5.934;2023-05-10T15:01:32;8.55;;;3.80;;
75358;SDS011;64046;51.978;5.934;2023-05-10T15:04:03;4.60;;;3.08;;
75358;SDS011;64046;51.978;5.934;2023-05-10T15:06:34;5.68;;;4.18;;
75358;SDS011;64046;51.978;5.934;2023-05-10T15:09:09;4.63;;;3.58;;
75358;SDS011;64046;51.978;5.934;2023-05-10T15:11:44;4.68;;;3.42;;
75358;SDS011;64046;51.978;5.934;2023-05-10T15:14:22;5.88;;;4.15;;
75358;SDS011;64046;51.978;5.934;2023-05-10T15:16:57;8.50;;;4.18;;
75358;SDS011;64046;51.978;5.934;2023-05-10T15:19:29;5.65;;;4.10;;
75358;SDS011;64046;51.978;5.934;2023-05-10T15:22:02;6.57;;;4.40;;
75358;SDS011;64046;51.978;5.934;2023-05-10T15:24:33;5.03;;;3.60;;
75358;SDS011;64046;51.978;5.934;2023-05-10T15:27:08;4.88;;;2.97;;
75358;SDS011;64046;51.978;5.934;2023-05-10T15:29:44;8.57;;;2.83;;
75358;SDS011;64046;51.978;5.934;2023-05-10T15:32:19;5.22;;;2.95;;
75358;SDS011;64046;51.978;5.934;2023-05-10T15:34:48;3.63;;;2.63;;
75358;SDS011;64046;51.978;5.934;2023-05-10T15:37:32;5.05;;;3.13;;
75358;SDS011;64046;51.978;5.934;2023-05-10T15:40:06;6.32;;;4.07;;
75358;SDS011;64046;51.978;5.934;2023-05-10T15:42:42;5.05;;;3.03;;
75358;SDS011;64046;51.978;5.934;2023-05-10T15:45:34;3.60;;;2.47;;
75358;SDS011;64046;51.978;5.934;2023-05-10T15:48:05;3.45;;;2.20;;
75358;SDS011;64046;51.978;5.934;2023-05-10T15:50:34;5.55;;;2.40;;
75358;SDS011;64046;51.978;5.934;2023-05-10T15:53:08;4.53;;;2.65;;
75358;SDS011;64046;51.978;5.934;2023-05-10T15:55:38;3.38;;;2.50;;
75358;SDS011;64046;51.978;5.934;2023-05-10T15:58:11;4.25;;;2.55;;
75358;SDS011;64046;51.978;5.934;2023-05-10T16:00:49;4.85;;;2.78;;
75358;SDS011;64046;51.978;5.934;2023-05-10T16:03:23;4.10;;;2.53;;
75358;SDS011;64046;51.978;5.934;2023-05-10T16:06:02;4.97;;;2.45;;
75358;SDS011;64046;51.978;5.934;2023-05-10T16:11:29;3.22;;;2.20;;
75358;SDS011;64046;51.978;5.934;2023-05-10T16:14:08;2.88;;;2.00;;
75358;SDS011;64046;51.978;5.934;2023-05-10T16:16:40;2.58;;;1.90;;
75358;SDS011;64046;51.978;5.934;2023-05-10T16:19:18;5.93;;;2.60;;
75358;SDS011;64046;51.978;5.934;2023-05-10T16:22:18;3.65;;;2.10;;
75358;SDS011;64046;51.978;5.934;2023-05-10T16:27:42;3.47;;;2.13;;
75358;SDS011;64046;51.978;5.934;2023-05-10T16:30:19;4.35;;;1.90;;
75358;SDS011;64046;51.978;5.934;2023-05-10T16:32:58;3.78;;;2.50;;
75358;SDS011;64046;51.978;5.934;2023-05-10T16:35:37;3.63;;;2.30;;
75358;SDS011;64046;51.978;5.934;2023-05-10T16:38:06;3.28;;;2.00;;
75358;SDS011;64046;51.978;5.934;2023-05-10T16:40:40;4.65;;;2.53;;
75358;SDS011;64046;51.978;5.934;2023-05-10T16:43:11;3.33;;;2.42;;
75358;SDS011;64046;51.978;5.934;2023-05-10T16:45:44;3.95;;;2.20;;
75358;SDS011;64046;51.978;5.934;2023-05-10T16:48:33;4.55;;;2.40;;
75358;SDS011;64046;51.978;5.934;2023-05-10T16:53:49;3.40;;;2.10;;